createdAt,value
2018-05-09T00:01:37.692Z,29.40
2018-05-09T00:04:05.967Z,29.50
2018-05-09T00:06:34.244Z,29.50
2018-05-09T00:09:02.547Z,29.50
2018-05-09T00:11:31.209Z,29.60
2018-05-09T00:13:59.889Z,29.70
2018-05-09T00:16:28.461Z,29.70
2018-05-09T00:18:56.739Z,29.70
2018-05-09T00:21:25.026Z,29.70
2018-05-09T00:23:53.347Z,29.80
2018-05-09T00:26:21.619Z,29.90
2018-05-09T00:28:49.888Z,30.10
2018-05-09T00:31:18.196Z,30.40
2018-05-09T00:33:46.469Z,30.70
2018-05-09T00:36:14.745Z,30.70
2018-05-09T00:38:43.052Z,30.80
2018-05-09T00:41:11.337Z,31.00
2018-05-09T00:43:39.613Z,31.00
2018-05-09T00:46:07.918Z,31.00
2018-05-09T00:48:36.219Z,31.10
2018-05-09T00:51:04.493Z,31.30
2018-05-09T00:53:32.808Z,31.30
2018-05-09T00:56:01.081Z,31.40
2018-05-09T00:58:29.649Z,31.70
2018-05-09T01:00:59.801Z,31.70
2018-05-09T01:03:28.369Z,31.70
2018-05-09T01:05:56.644Z,32.00
2018-05-09T01:08:24.962Z,32.30
2018-05-09T01:10:53.239Z,32.30
2018-05-09T01:13:21.512Z,32.30
2018-05-09T01:15:49.838Z,32.50
2018-05-09T01:18:18.142Z,32.60
2018-05-09T01:20:46.717Z,32.80
2018-05-09T01:23:15.306Z,32.80
2018-05-09T01:25:43.572Z,32.90
2018-05-09T01:28:11.857Z,32.90
2018-05-09T01:30:40.581Z,32.90
2018-05-09T01:33:08.865Z,32.90
2018-05-09T01:35:37.145Z,32.90
2018-05-09T01:38:05.774Z,33.20
2018-05-09T01:40:34.065Z,33.20
2018-05-09T01:43:02.342Z,33.40
2018-05-09T01:45:31.030Z,33.50
2018-05-09T01:47:59.704Z,33.50
2018-05-09T01:50:27.980Z,33.50
2018-05-09T01:52:56.260Z,33.80
2018-05-09T01:55:24.536Z,34.20
2018-05-09T01:57:52.816Z,34.10
2018-05-09T02:00:21.898Z,34.00
2018-05-09T02:02:50.171Z,34.00
2018-05-09T02:05:18.442Z,33.70
2018-05-09T02:07:46.725Z,33.50
2018-05-09T02:10:14.996Z,33.50
2018-05-09T02:12:43.273Z,33.20
2018-05-09T02:15:11.599Z,33.10
2018-05-09T02:17:40.170Z,32.90
2018-05-09T02:20:09.129Z,32.90
2018-05-09T02:22:37.435Z,32.90
2018-05-09T02:25:06.118Z,32.90
2018-05-09T02:27:34.794Z,40.00
2018-05-09T02:30:03.497Z,40.30
2018-05-09T02:32:31.761Z,40.30
2018-05-09T02:35:00.438Z,39.60
2018-05-09T02:37:28.790Z,39.70
2018-05-09T02:39:57.549Z,38.70
2018-05-09T02:42:25.833Z,38.70
2018-05-09T02:44:54.152Z,40.70
2018-05-09T02:47:22.506Z,39.10
2018-05-09T02:49:50.846Z,37.60
2018-05-09T02:52:19.566Z,39.30
2018-05-09T02:54:48.269Z,39.40
2018-05-09T02:57:17.256Z,39.00
2018-05-09T02:59:46.525Z,39.30
2018-05-09T03:02:17.109Z,36.80
2018-05-09T03:04:45.662Z,37.50
2018-05-09T03:07:13.924Z,39.00
2018-05-09T03:09:42.212Z,37.40
2018-05-09T03:12:10.512Z,38.40
2018-05-09T03:14:38.785Z,37.10
2018-05-09T03:17:07.057Z,37.90
2018-05-09T03:19:35.375Z,38.80
2018-05-09T03:22:03.641Z,37.50
2018-05-09T03:24:32.304Z,38.50
2018-05-09T03:27:01.029Z,38.10
2018-05-09T03:29:29.402Z,38.10
2018-05-09T03:31:57.681Z,39.90
2018-05-09T03:34:26.206Z,39.90
2018-05-09T03:36:54.796Z,38.20
2018-05-09T03:39:23.067Z,39.00
2018-05-09T03:41:51.385Z,38.40
2018-05-09T03:44:19.723Z,38.10
2018-05-09T03:46:47.990Z,37.90
2018-05-09T03:49:16.304Z,38.40
2018-05-09T03:51:44.959Z,39.10
2018-05-09T03:54:13.225Z,39.10
2018-05-09T03:56:41.517Z,38.70
2018-05-09T03:59:09.776Z,39.10
2018-05-09T04:01:49.901Z,40.20
2018-05-09T04:04:30.044Z,39.10
2018-05-09T04:07:10.462Z,38.10
2018-05-09T04:09:55.566Z,38.10
2018-05-09T04:12:24.742Z,39.10
2018-05-09T04:14:53.085Z,38.70
2018-05-09T04:17:21.375Z,38.10
2018-05-09T04:19:49.684Z,38.50
2018-05-09T04:22:18.352Z,38.80
2018-05-09T04:24:46.813Z,38.80
2018-05-09T04:27:16.073Z,37.90
2018-05-09T04:29:44.605Z,38.40
2018-05-09T04:32:12.876Z,37.90
2018-05-09T04:34:41.154Z,37.60
2018-05-09T04:37:09.433Z,37.10
2018-05-09T04:39:37.827Z,37.50
2018-05-09T04:42:06.193Z,37.60
2018-05-09T04:44:34.432Z,37.40
2018-05-09T04:47:03.462Z,36.30
2018-05-09T04:49:32.152Z,37.10
2018-05-09T04:52:00.509Z,37.10
2018-05-09T04:54:28.766Z,36.30
2018-05-09T04:56:57.042Z,37.10
2018-05-09T04:59:25.412Z,37.90
2018-05-09T05:01:53.767Z,37.80
2018-05-09T05:04:22.197Z,36.90
2018-05-09T05:06:50.483Z,37.50
2018-05-09T05:09:18.761Z,36.30
2018-05-09T05:11:47.127Z,36.60
2018-05-09T05:14:15.845Z,37.50
2018-05-09T05:16:44.125Z,37.50
2018-05-09T05:19:12.793Z,36.90
2018-05-09T05:21:41.068Z,36.90
2018-05-09T05:24:09.389Z,36.50
2018-05-09T05:26:37.651Z,36.20
2018-05-09T05:29:06.326Z,36.90
2018-05-09T05:31:35.031Z,36.60
2018-05-09T05:34:03.299Z,36.60
2018-05-09T05:36:31.977Z,35.90
2018-05-09T05:39:00.940Z,35.90
2018-05-09T05:41:29.207Z,35.90
2018-05-09T05:43:57.806Z,35.90
2018-05-09T05:46:26.166Z,35.90
2018-05-09T05:48:54.442Z,35.90
2018-05-09T05:51:22.718Z,35.70
2018-05-09T05:53:50.997Z,35.70
2018-05-09T05:56:19.373Z,35.70
2018-05-09T05:58:47.666Z,35.40
2018-05-09T06:01:15.940Z,35.40
2018-05-09T06:03:44.209Z,35.10
2018-05-09T06:06:12.507Z,35.10
2018-05-09T06:08:41.080Z,35.10
2018-05-09T06:11:09.394Z,34.50
2018-05-09T06:13:37.666Z,34.50
2018-05-09T06:16:06.329Z,34.10
2018-05-09T06:18:34.904Z,34.10
2018-05-09T06:21:03.174Z,34.50
2018-05-09T06:23:31.460Z,34.40
2018-05-09T06:25:59.740Z,34.20
2018-05-09T06:28:28.052Z,34.10
2018-05-09T06:30:56.379Z,34.20
2018-05-09T06:33:24.625Z,34.20
2018-05-09T06:35:52.928Z,34.10
2018-05-09T06:38:21.200Z,33.70
2018-05-09T06:40:49.504Z,33.80
2018-05-09T06:43:18.256Z,33.10
2018-05-09T06:45:46.534Z,33.10
2018-05-09T06:48:14.812Z,32.90
2018-05-09T06:50:43.089Z,32.90
2018-05-09T06:53:11.469Z,32.80
2018-05-09T06:55:39.765Z,32.90
2018-05-09T06:58:08.119Z,32.20
2018-05-09T07:00:36.432Z,32.00
2018-05-09T07:03:05.099Z,31.00
2018-05-09T07:05:33.376Z,31.00
2018-05-09T07:08:02.103Z,29.90
2018-05-09T07:10:30.385Z,30.10
2018-05-09T07:12:58.674Z,29.60
2018-05-09T07:15:26.966Z,29.10
2018-05-09T07:17:55.352Z,28.50
2018-05-09T07:20:23.633Z,27.70
2018-05-09T07:22:51.960Z,27.20
2018-05-09T07:25:20.282Z,26.60
2018-05-09T07:27:48.644Z,26.10
2018-05-09T07:30:17.052Z,25.40
2018-05-09T07:32:45.728Z,23.90
2018-05-09T07:35:14.009Z,24.00
2018-05-09T07:37:42.782Z,23.40
2018-05-09T07:40:11.059Z,23.40
2018-05-09T07:42:40.446Z,23.10
2018-05-09T07:45:08.760Z,23.00
2018-05-09T07:47:37.127Z,22.70
2018-05-09T07:50:05.837Z,22.10
2018-05-09T07:52:34.406Z,22.10
2018-05-09T07:55:03.099Z,21.60
2018-05-09T07:57:31.451Z,21.70
2018-05-09T07:59:59.834Z,21.50
2018-05-09T08:02:28.106Z,21.20
2018-05-09T08:04:56.427Z,21.20
2018-05-09T08:07:25.108Z,21.20
2018-05-09T08:09:53.861Z,21.40
2018-05-09T08:12:22.170Z,21.40
2018-05-09T08:14:50.514Z,21.40
2018-05-09T08:17:19.548Z,21.50
2018-05-09T08:19:48.266Z,21.90
2018-05-09T08:22:16.619Z,21.90
2018-05-09T08:24:45.279Z,22.30
2018-05-09T08:27:13.587Z,22.30
2018-05-09T08:29:42.324Z,22.60
2018-05-09T08:32:10.748Z,22.60
2018-05-09T08:34:39.465Z,23.00
2018-05-09T08:37:07.812Z,23.00
2018-05-09T08:39:36.130Z,22.80
2018-05-09T08:42:04.426Z,22.80
2018-05-09T08:44:32.791Z,22.80
2018-05-09T08:47:01.077Z,22.70
2018-05-09T08:49:29.348Z,22.50
2018-05-09T08:51:57.644Z,22.00
2018-05-09T08:54:25.953Z,21.50
2018-05-09T08:56:54.211Z,21.00
2018-05-09T08:59:22.893Z,19.20
2018-05-09T09:01:51.607Z,18.40
2018-05-09T09:04:20.210Z,18.40
2018-05-09T09:06:48.848Z,17.80
2018-05-09T09:09:17.833Z,17.50
2018-05-09T09:11:46.154Z,17.60
2018-05-09T09:14:14.470Z,17.30
2018-05-09T09:16:42.842Z,17.20
2018-05-09T09:19:11.119Z,16.90
2018-05-09T09:21:39.669Z,16.90
2018-05-09T09:24:08.115Z,16.90
2018-05-09T09:26:36.794Z,17.60
2018-05-09T09:29:05.512Z,17.10
2018-05-09T09:31:33.781Z,17.10
2018-05-09T09:34:02.827Z,17.90
2018-05-09T09:36:31.134Z,18.30
2018-05-09T09:38:59.810Z,19.40
2018-05-09T09:41:28.111Z,19.40
2018-05-09T09:43:56.817Z,18.60
2018-05-09T09:46:25.091Z,18.60
2018-05-09T09:48:53.354Z,19.30
2018-05-09T09:51:21.625Z,19.60
2018-05-09T09:53:49.954Z,19.10
2018-05-09T09:56:18.267Z,19.30
2018-05-09T09:58:46.936Z,18.50
2018-05-09T10:01:15.293Z,18.50
2018-05-09T10:03:43.619Z,18.60
2018-05-09T10:06:11.889Z,18.50
2018-05-09T10:08:40.573Z,18.20
2018-05-09T10:11:08.908Z,18.20
2018-05-09T10:13:37.197Z,18.20
2018-05-09T10:16:05.504Z,18.50
2018-05-09T10:18:33.821Z,17.90
2018-05-09T10:21:02.136Z,18.20
2018-05-09T10:23:30.407Z,17.50
2018-05-09T10:25:58.873Z,18.20
2018-05-09T10:28:27.146Z,17.60
2018-05-09T10:30:55.530Z,17.90
2018-05-09T10:33:23.841Z,18.00
2018-05-09T10:35:53.875Z,18.20
2018-05-09T10:38:22.835Z,17.70
2018-05-09T10:40:51.338Z,17.60
2018-05-09T10:43:19.808Z,17.40
2018-05-09T10:45:48.287Z,17.50
2018-05-09T10:48:17.082Z,17.00
2018-05-09T10:50:45.721Z,17.00
2018-05-09T10:53:13.968Z,17.20
2018-05-09T10:55:42.349Z,17.80
2018-05-09T10:58:10.762Z,17.70
2018-05-09T11:00:40.165Z,17.40
2018-05-09T11:03:08.438Z,17.40
2018-05-09T11:05:36.697Z,17.60
2018-05-09T11:08:05.221Z,17.50
2018-05-09T11:10:33.786Z,17.60
2018-05-09T11:13:02.058Z,17.60
2018-05-09T11:15:30.367Z,17.60
2018-05-09T11:17:58.654Z,17.70
2018-05-09T11:20:26.989Z,18.20
2018-05-09T11:22:55.306Z,18.30
2018-05-09T11:25:24.056Z,17.80
2018-05-09T11:27:52.344Z,17.80
2018-05-09T11:30:20.635Z,18.20
2018-05-09T11:32:48.993Z,18.00
2018-05-09T11:35:17.272Z,17.80
2018-05-09T11:37:45.558Z,17.50
2018-05-09T11:40:13.953Z,16.90
2018-05-09T11:42:42.178Z,17.00
2018-05-09T11:45:10.478Z,17.30
2018-05-09T11:47:38.873Z,17.00
2018-05-09T11:50:07.154Z,17.40
2018-05-09T11:52:35.857Z,18.30
2018-05-09T11:55:04.164Z,18.30
2018-05-09T11:57:32.829Z,18.70
2018-05-09T12:00:01.133Z,19.20
2018-05-09T12:02:29.521Z,19.60
2018-05-09T12:04:58.139Z,20.40
2018-05-09T12:07:26.592Z,20.40
2018-05-09T12:09:54.933Z,20.70
2018-05-09T12:12:23.207Z,21.00
2018-05-09T12:14:51.501Z,21.40
2018-05-09T12:17:19.770Z,21.70
2018-05-09T12:19:48.173Z,22.00
2018-05-09T12:22:16.456Z,22.20
2018-05-09T12:24:44.930Z,22.30
2018-05-09T12:27:13.233Z,22.50
2018-05-09T12:29:41.508Z,22.30
2018-05-09T12:32:09.862Z,22.40
2018-05-09T12:34:38.162Z,22.40
2018-05-09T12:37:06.483Z,22.20
2018-05-09T12:39:34.790Z,22.30
2018-05-09T12:42:03.119Z,22.20
2018-05-09T12:44:32.400Z,22.40
2018-05-09T12:47:01.088Z,22.60
2018-05-09T12:49:29.424Z,22.60
2018-05-09T12:51:57.809Z,22.80
2018-05-09T12:54:26.157Z,22.80
2018-05-09T12:56:54.428Z,22.80
2018-05-09T12:59:22.717Z,22.70
2018-05-09T13:01:51.056Z,22.90
2018-05-09T13:04:19.733Z,22.90
2018-05-09T13:06:48.557Z,22.80
2018-05-09T13:09:16.836Z,22.70
2018-05-09T13:11:45.105Z,22.30
2018-05-09T13:14:13.418Z,22.30
2018-05-09T13:16:41.697Z,22.60
2018-05-09T13:19:10.607Z,22.20
2018-05-09T13:21:39.306Z,22.50
2018-05-09T13:24:07.577Z,22.40
2018-05-09T13:26:36.559Z,22.30
2018-05-09T13:29:04.982Z,22.30
2018-05-09T13:31:33.282Z,22.20
2018-05-09T13:34:01.547Z,22.20
2018-05-09T13:36:29.964Z,22.30
2018-05-09T13:38:58.330Z,22.20
2018-05-09T13:41:26.532Z,22.30
2018-05-09T13:43:54.999Z,22.10
2018-05-09T13:46:23.422Z,22.20
2018-05-09T13:48:51.709Z,22.00
2018-05-09T13:51:20.123Z,22.20
2018-05-09T13:53:48.423Z,21.90
2018-05-09T13:56:16.947Z,21.50
2018-05-09T13:58:45.366Z,21.70
2018-05-09T14:01:14.595Z,21.40
2018-05-09T14:03:43.327Z,21.70
2018-05-09T14:06:11.609Z,21.80
2018-05-09T14:08:39.914Z,21.90
2018-05-09T14:11:08.201Z,21.90
2018-05-09T14:13:36.494Z,22.10
2018-05-09T14:16:04.772Z,22.10
2018-05-09T14:18:33.453Z,21.90
2018-05-09T14:21:02.170Z,22.00
2018-05-09T14:23:30.515Z,22.00
2018-05-09T14:25:59.017Z,21.90
2018-05-09T14:28:27.537Z,21.90
2018-05-09T14:30:56.130Z,22.00
2018-05-09T14:33:25.061Z,22.10
2018-05-09T14:35:53.403Z,22.10
2018-05-09T14:38:21.684Z,22.10
2018-05-09T14:40:49.960Z,22.20
2018-05-09T14:43:18.892Z,22.30
2018-05-09T14:45:47.210Z,22.50
2018-05-09T14:48:15.480Z,22.50
2018-05-09T14:50:43.822Z,22.40
2018-05-09T14:53:12.148Z,22.60
2018-05-09T14:55:40.445Z,22.70
2018-05-09T14:58:09.250Z,23.20
2018-05-09T15:00:37.923Z,23.00
2018-05-09T15:03:07.006Z,23.00
2018-05-09T15:05:35.339Z,23.00
2018-05-09T15:08:03.615Z,23.00
2018-05-09T15:10:31.926Z,22.60
2018-05-09T15:13:00.225Z,22.70
2018-05-09T15:15:28.904Z,22.60
2018-05-09T15:17:57.191Z,22.60
2018-05-09T15:20:25.465Z,22.50
2018-05-09T15:22:54.159Z,22.80
2018-05-09T15:25:22.836Z,23.00
2018-05-09T15:27:51.545Z,23.10
2018-05-09T15:30:19.809Z,23.10
2018-05-09T15:32:48.189Z,23.30
2018-05-09T15:35:16.730Z,23.30
2018-05-09T15:37:45.069Z,23.40
2018-05-09T15:40:13.378Z,23.50
2018-05-09T15:42:41.676Z,23.40
2018-05-09T15:45:09.990Z,23.40
2018-05-09T15:47:38.266Z,23.50
2018-05-09T15:50:06.543Z,23.80
2018-05-09T15:52:34.848Z,23.90
2018-05-09T15:55:03.135Z,24.10
2018-05-09T15:57:31.462Z,24.30
2018-05-09T15:59:59.853Z,24.30
2018-05-09T16:02:28.583Z,24.50
2018-05-09T16:04:56.898Z,24.50
2018-05-09T16:07:25.564Z,24.50
2018-05-09T16:09:53.850Z,24.50
2018-05-09T16:12:22.135Z,24.40
2018-05-09T16:14:51.557Z,24.50
2018-05-09T16:17:19.866Z,24.50
2018-05-09T16:19:48.188Z,24.70
2018-05-09T16:22:16.946Z,24.90
2018-05-09T16:24:45.577Z,25.00
2018-05-09T16:27:13.863Z,25.00
2018-05-09T16:29:42.161Z,25.00
2018-05-09T16:32:10.459Z,25.00
2018-05-09T16:34:38.923Z,25.20
2018-05-09T16:37:07.554Z,25.30
2018-05-09T16:39:38.682Z,25.30
2018-05-09T16:42:07.222Z,25.50
2018-05-09T16:44:36.047Z,25.50
2018-05-09T16:47:04.617Z,25.60
2018-05-09T16:49:33.589Z,25.70
2018-05-09T16:52:02.227Z,25.80
2018-05-09T16:54:30.619Z,25.80
2018-05-09T16:56:58.934Z,25.90
2018-05-09T16:59:27.210Z,26.00
2018-05-09T17:01:55.488Z,26.10
2018-05-09T17:04:24.011Z,26.30
2018-05-09T17:06:52.317Z,26.40
2018-05-09T17:09:20.654Z,26.50
2018-05-09T17:11:49.217Z,26.60
2018-05-09T17:14:17.485Z,26.70
2018-05-09T17:16:45.869Z,26.70
2018-05-09T17:19:14.221Z,26.70
2018-05-09T17:21:57.272Z,26.60
2018-05-09T17:24:25.653Z,26.80
2018-05-09T17:26:53.928Z,26.90
2018-05-09T17:29:22.237Z,26.90
2018-05-09T17:31:51.009Z,27.00
2018-05-09T17:34:19.291Z,27.00
2018-05-09T17:36:47.674Z,27.10
2018-05-09T17:39:15.886Z,27.10
2018-05-09T17:41:44.634Z,27.10
2018-05-09T17:44:12.921Z,27.20
2018-05-09T17:46:41.610Z,27.30
2018-05-09T17:49:10.311Z,27.40
2018-05-09T17:51:38.668Z,27.40
2018-05-09T17:54:06.946Z,27.50
2018-05-09T17:56:35.703Z,28.30
2018-05-09T17:59:04.063Z,28.30
2018-05-09T18:01:32.351Z,29.10
2018-05-09T18:04:00.625Z,29.70
2018-05-09T18:06:28.986Z,30.60
2018-05-09T18:08:57.257Z,31.70
2018-05-09T18:11:25.541Z,32.20
2018-05-09T18:13:53.837Z,33.70
2018-05-09T18:16:22.142Z,35.30
2018-05-09T18:18:50.424Z,36.00
2018-05-09T18:21:19.123Z,36.90
2018-05-09T18:23:48.088Z,36.60
2018-05-09T18:26:16.387Z,36.80
2018-05-09T18:28:45.060Z,36.90
2018-05-09T18:31:13.339Z,36.90
2018-05-09T18:33:41.877Z,37.20
2018-05-09T18:36:10.494Z,37.20
2018-05-09T18:38:38.967Z,37.20
2018-05-09T18:41:07.265Z,36.80
2018-05-09T18:43:35.953Z,37.10
2018-05-09T18:46:04.805Z,38.20
2018-05-09T18:48:33.109Z,38.20
2018-05-09T18:51:01.397Z,37.20
2018-05-09T18:53:30.139Z,38.20
2018-05-09T18:55:58.553Z,38.40
2018-05-09T18:58:26.840Z,37.60
2018-05-09T19:00:55.550Z,34.80
2018-05-09T19:03:23.896Z,34.80
2018-05-09T19:05:52.213Z,34.70
2018-05-09T19:08:20.483Z,35.40
2018-05-09T19:10:49.015Z,35.70
2018-05-09T19:13:17.365Z,35.40
2018-05-09T19:15:45.876Z,34.70
2018-05-09T19:18:14.151Z,34.00
2018-05-09T19:20:42.439Z,34.70
2018-05-09T19:23:11.177Z,35.60
2018-05-09T19:25:39.873Z,37.10
2018-05-09T19:28:08.148Z,37.10
2018-05-09T19:30:36.440Z,34.70
2018-05-09T19:33:04.804Z,34.50
2018-05-09T19:35:33.090Z,35.10
2018-05-09T19:38:01.602Z,35.40
2018-05-09T19:40:29.921Z,34.40
2018-05-09T19:42:58.634Z,34.80
2018-05-09T19:45:26.925Z,35.10
2018-05-09T19:47:55.237Z,35.70
2018-05-09T19:50:23.609Z,36.20
2018-05-09T19:52:51.898Z,36.80
2018-05-09T19:55:20.217Z,36.60
2018-05-09T19:57:48.519Z,36.60
2018-05-09T20:00:17.464Z,36.90
2018-05-09T20:02:45.829Z,37.10
2018-05-09T20:05:14.553Z,36.90
2018-05-09T20:07:42.831Z,36.80
2018-05-09T20:10:11.165Z,36.20
2018-05-09T20:12:39.495Z,36.50
2018-05-09T20:15:07.791Z,36.20
2018-05-09T20:17:36.514Z,36.50
2018-05-09T20:20:05.569Z,36.50
2018-05-09T20:22:33.901Z,36.30
2018-05-09T20:25:02.399Z,36.50
2018-05-09T20:27:31.150Z,35.90
2018-05-09T20:29:59.449Z,35.90
2018-05-09T20:32:46.802Z,36.30
2018-05-09T20:35:15.541Z,36.30
2018-05-09T20:37:44.322Z,36.00
2018-05-09T20:40:12.963Z,36.00
2018-05-09T20:42:41.447Z,35.90
2018-05-09T20:45:09.768Z,36.00
2018-05-09T20:47:38.130Z,35.70
2018-05-09T20:50:06.781Z,35.60
2018-05-09T20:52:35.144Z,35.60
2018-05-09T20:58:05.095Z,35.60
2018-05-09T21:00:33.442Z,35.60
2018-05-09T21:03:02.049Z,36.30
2018-05-09T21:05:30.338Z,36.80
2018-05-09T21:07:58.654Z,37.40
2018-05-09T21:10:27.474Z,37.90
2018-05-09T21:12:56.205Z,38.50
2018-05-09T21:15:24.988Z,39.60
2018-05-09T21:17:53.275Z,39.60
2018-05-09T21:20:21.936Z,40.90
2018-05-09T21:22:50.290Z,40.90
2018-05-09T21:25:18.591Z,41.00
2018-05-09T21:27:46.882Z,41.00
2018-05-09T21:30:16.579Z,41.50
2018-05-09T21:32:45.471Z,41.50
2018-05-09T21:35:14.067Z,41.80
2018-05-09T21:37:42.562Z,41.80
2018-05-09T21:40:10.882Z,41.60
2018-05-09T21:42:39.550Z,41.80
2018-05-09T21:45:08.073Z,41.60
2018-05-09T21:47:36.354Z,41.80
2018-05-09T21:50:04.665Z,41.60
2018-05-09T21:52:32.992Z,41.60
2018-05-09T21:55:01.499Z,41.60
2018-05-09T21:57:30.191Z,41.50
2018-05-09T21:59:58.914Z,41.50
2018-05-09T22:02:28.054Z,41.50
2018-05-09T22:04:56.410Z,41.50
2018-05-09T22:07:24.697Z,41.60
2018-05-09T22:09:53.296Z,41.60
2018-05-09T22:12:21.597Z,41.60
2018-05-09T22:14:50.562Z,41.50
2018-05-09T22:17:18.844Z,41.50
2018-05-09T22:19:47.116Z,41.50
2018-05-09T22:22:15.529Z,41.50
2018-05-09T22:24:44.201Z,41.50
2018-05-09T22:27:12.885Z,41.60
2018-05-09T22:29:41.564Z,41.50
2018-05-09T22:32:10.290Z,41.30
2018-05-09T22:34:38.594Z,41.30
2018-05-09T22:37:06.903Z,41.30
2018-05-09T22:39:35.589Z,41.00
2018-05-09T22:42:03.953Z,41.00
2018-05-09T22:44:32.213Z,41.20
2018-05-09T22:47:00.487Z,40.90
2018-05-09T22:49:29.093Z,40.50
2018-05-09T22:51:57.367Z,40.70
2018-05-09T22:54:25.682Z,40.60
2018-05-09T22:56:54.377Z,40.60
2018-05-09T22:59:22.653Z,40.60
2018-05-09T23:01:51.144Z,40.70
2018-05-09T23:04:19.428Z,41.00
2018-05-09T23:06:47.728Z,41.20
2018-05-09T23:09:16.036Z,41.30
2018-05-09T23:11:45.007Z,41.80
2018-05-09T23:14:13.697Z,41.90
2018-05-09T23:16:42.054Z,41.90
2018-05-09T23:19:10.319Z,42.10
2018-05-09T23:21:38.615Z,42.40
2018-05-09T23:24:06.897Z,42.80
2018-05-09T23:26:35.211Z,43.10
2018-05-09T23:29:03.498Z,43.30
2018-05-09T23:31:31.772Z,43.30
2018-05-09T23:34:00.059Z,43.40
2018-05-09T23:36:28.336Z,43.30
2018-05-09T23:38:56.631Z,43.60
2018-05-09T23:41:24.935Z,43.70
2018-05-09T23:43:53.237Z,43.70
2018-05-09T23:46:21.943Z,43.70
2018-05-09T23:48:50.222Z,43.70
2018-05-09T23:51:18.505Z,43.90
2018-05-09T23:53:46.843Z,44.00
2018-05-09T23:56:15.113Z,43.90
2018-05-09T23:58:43.459Z,44.00
